Time;durP1;ratioP1;P1;durP2;ratioP2;P2;SDS_P1;SDS_P2;PMS_P1;PMS_P2;Temp;Humidity;BMP_temperature;BMP_pressure;BME280_temperature;BME280_humidity;BME280_pressure;Samples;Min_cycle;Max_cycle;Signal;HPM_P1;HPM_P2
2022/04/18 00:01:41;;;;;;;1.40;0.65;;;12.30;99.90;;;;;;5094720;28;20039;-79
2022/04/18 00:04:07;;;;;;;1.35;0.77;;;12.30;99.90;;;;;;5094298;28;20403;-74
2022/04/18 00:06:35;;;;;;;0.00;0.00;;;12.20;99.90;;;;;;5094527;28;20415;-79
2022/04/18 00:09:02;;;;;;;0.85;0.20;;;12.20;99.90;;;;;;5094584;28;20157;-74
2022/04/18 00:11:27;;;;;;;0.77;0.77;;;12.20;99.90;;;;;;5093810;28;20028;-74
2022/04/18 00:13:53;;;;;;;43.67;1.85;;;12.10;99.90;;;;;;5094203;28;20024;-79
2022/04/18 00:16:19;;;;;;;3.20;2.15;;;12.10;99.90;;;;;;5094235;28;20070;-74
2022/04/18 00:18:44;;;;;;;0.30;0.30;;;12.10;99.90;;;;;;5093569;28;20062;-74
2022/04/18 00:21:10;;;;;;;1.88;0.10;;;12.00;99.90;;;;;;5094301;28;20024;-74
2022/04/18 00:23:36;;;;;;;1.08;0.88;;;12.00;99.90;;;;;;5093990;28;20028;-74
2022/04/18 00:26:02;;;;;;;2.95;0.77;;;11.90;99.90;;;;;;5094004;28;20028;-79
2022/04/18 00:28:29;;;;;;;0.77;0.55;;;11.90;99.90;;;;;;5094218;28;20051;-79
2022/04/18 00:30:54;;;;;;;0.10;0.10;;;11.90;99.90;;;;;;5094032;28;20103;-74
2022/04/18 00:33:20;;;;;;;7.45;1.40;;;11.90;99.90;;;;;;5093172;28;20115;-79
2022/04/18 00:35:46;;;;;;;1.83;1.50;;;11.80;99.90;;;;;;5093593;28;20035;-74
2022/04/18 00:38:11;;;;;;;1.55;1.45;;;11.80;99.90;;;;;;5093857;28;20032;-79
2022/04/18 00:40:37;;;;;;;0.35;0.20;;;11.70;99.90;;;;;;5093300;28;20032;-80
2022/04/18 00:43:04;;;;;;;0.20;0.20;;;11.70;99.90;;;;;;5073536;28;20036;-74
2022/04/18 00:45:30;;;;;;;0.22;0.22;;;11.70;99.90;;;;;;5073358;28;20479;-74
2022/04/18 00:47:56;;;;;;;3.60;1.90;;;11.60;99.90;;;;;;5073546;28;20107;-74
2022/04/18 00:50:24;;;;;;;6.38;0.93;;;11.70;99.90;;;;;;5072340;28;20438;-74
2022/04/18 00:52:52;;;;;;;0.38;0.20;;;11.70;99.90;;;;;;5075629;28;20032;-79
2022/04/18 00:55:18;;;;;;;1.15;0.80;;;11.60;99.90;;;;;;5093564;28;20031;-74
2022/04/18 00:57:44;;;;;;;0.00;0.00;;;11.60;99.90;;;;;;5093218;28;20078;-74
2022/04/18 01:00:10;;;;;;;1.88;0.55;;;11.60;99.90;;;;;;5093454;28;20042;-74
2022/04/18 01:02:36;;;;;;;0.15;0.15;;;11.60;99.90;;;;;;5093550;28;20023;-74
2022/04/18 01:05:02;;;;;;;0.03;0.03;;;11.60;99.90;;;;;;5093105;28;20406;-79
2022/04/18 01:07:28;;;;;;;1.73;0.35;;;11.60;99.90;;;;;;5093109;28;20028;-79
2022/04/18 01:09:53;;;;;;;0.65;0.65;;;11.60;99.90;;;;;;5093122;28;20106;-74
2022/04/18 01:12:19;;;;;;;0.43;0.35;;;11.70;99.90;;;;;;5093094;28;20023;-74
2022/04/18 01:14:48;;;;;;;0.70;0.45;;;11.60;99.90;;;;;;5092380;28;20028;-74
2022/04/18 01:17:15;;;;;;;0.88;0.55;;;11.70;99.90;;;;;;5093270;28;20474;-80
2022/04/18 01:19:41;;;;;;;0.57;0.15;;;11.70;99.90;;;;;;5092492;28;20082;-79
2022/04/18 01:22:12;;;;;;;0.50;0.50;;;11.70;99.90;;;;;;5093384;28;20441;-74
2022/04/18 01:30:11;;;;;;;3.25;0.80;;;11.90;99.90;;;;;;5113423;28;20413;-80
2022/04/18 01:32:37;;;;;;;1.75;0.63;;;11.90;99.90;;;;;;5113520;28;20027;-79
2022/04/18 01:35:04;;;;;;;0.05;0.05;;;12.00;99.90;;;;;;5113197;28;20027;-80
2022/04/18 01:37:29;;;;;;;1.35;0.35;;;12.00;99.90;;;;;;5113090;28;20020;-74
2022/04/18 01:39:56;;;;;;;1.75;0.47;;;12.00;99.90;;;;;;5113349;28;20024;-74
2022/04/18 01:42:21;;;;;;;0.30;0.30;;;12.00;99.90;;;;;;5084429;28;20476;-74
2022/04/18 01:44:48;;;;;;;0.25;0.25;;;12.10;99.90;;;;;;5072846;28;20070;-79
2022/04/18 01:47:14;;;;;;;0.00;0.00;;;12.10;99.90;;;;;;5072473;28;20048;-79
2022/04/18 01:49:39;;;;;;;0.47;0.15;;;12.10;99.90;;;;;;5072200;28;20025;-74
2022/04/18 01:52:05;;;;;;;0.03;0.03;;;12.20;99.90;;;;;;5074472;28;20024;-74
2022/04/18 01:54:31;;;;;;;1.58;1.30;;;12.20;99.90;;;;;;5108700;28;20031;-79
2022/04/18 01:56:57;;;;;;;1.08;0.90;;;12.20;99.90;;;;;;5117207;28;20103;-79
2022/04/18 01:59:22;;;;;;;0.20;0.20;;;12.20;99.90;;;;;;5116912;28;20016;-79
2022/04/18 02:01:49;;;;;;;0.52;0.52;;;12.10;99.90;;;;;;5117140;28;20020;-79
2022/04/18 02:04:15;;;;;;;1.27;0.88;;;12.20;99.90;;;;;;5116884;28;20026;-79
2022/04/18 02:06:40;;;;;;;1.20;0.70;;;12.20;99.90;;;;;;5116946;28;20405;-74
2022/04/18 02:09:06;;;;;;;5.95;0.95;;;12.20;99.90;;;;;;5117118;28;20580;-79
2022/04/18 02:11:32;;;;;;;0.47;0.45;;;12.10;99.90;;;;;;5116687;28;20031;-79
2022/04/18 02:13:58;;;;;;;0.30;0.30;;;12.10;99.90;;;;;;5116626;28;20023;-79
2022/04/18 02:16:24;;;;;;;0.45;0.28;;;12.10;99.90;;;;;;5116882;28;20046;-74
2022/04/18 02:18:50;;;;;;;3.13;0.63;;;12.20;99.90;;;;;;5115771;28;20012;-78
2022/04/18 02:21:17;;;;;;;0.20;0.20;;;12.10;99.90;;;;;;5116738;28;20024;-74
2022/04/18 02:23:43;;;;;;;0.43;0.43;;;12.10;99.90;;;;;;5116895;28;20019;-79
2022/04/18 02:26:09;;;;;;;1.38;1.23;;;12.10;99.90;;;;;;5116025;28;20383;-79
2022/04/18 02:28:35;;;;;;;2.13;1.25;;;12.00;99.90;;;;;;5116670;28;20047;-80
2022/04/18 02:31:02;;;;;;;0.32;0.20;;;12.00;99.90;;;;;;5116666;28;20104;-74
2022/04/18 02:33:28;;;;;;;1.23;0.75;;;11.90;99.90;;;;;;5116111;28;20020;-79
2022/04/18 02:35:54;;;;;;;0.57;0.32;;;11.80;99.90;;;;;;5098221;28;20461;-80
2022/04/18 02:38:20;;;;;;;1.90;1.55;;;11.70;99.90;;;;;;5102659;28;20368;-78
2022/04/18 02:40:46;;;;;;;2.25;0.90;;;11.70;99.90;;;;;;5095905;28;20089;-74
2022/04/18 02:43:12;;;;;;;0.20;0.20;;;11.60;99.90;;;;;;5096154;28;20086;-74
2022/04/18 02:45:38;;;;;;;1.00;0.52;;;11.60;99.90;;;;;;5095225;28;20044;-74
2022/04/18 02:48:05;;;;;;;0.60;0.57;;;11.50;99.90;;;;;;5095096;28;20418;-80
2022/04/18 02:50:31;;;;;;;5.18;1.98;;;11.50;99.90;;;;;;5093559;28;20402;-79
2022/04/18 02:52:57;;;;;;;1.17;0.90;;;11.50;99.90;;;;;;5096665;28;20015;-74
2022/04/18 02:55:23;;;;;;;0.90;0.77;;;11.40;99.90;;;;;;5114920;28;20027;-74
2022/04/18 02:57:49;;;;;;;1.00;0.93;;;11.40;99.90;;;;;;5114588;28;20016;-80
2022/04/18 03:00:15;;;;;;;0.08;0.08;;;11.40;99.90;;;;;;5115206;28;20398;-74
2022/04/18 03:02:41;;;;;;;0.65;0.65;;;11.50;99.90;;;;;;5114356;28;20031;-79
2022/04/18 03:05:08;;;;;;;1.02;0.77;;;11.50;99.90;;;;;;5096325;28;20032;-74
2022/04/18 03:07:34;;;;;;;0.40;0.40;;;11.40;99.90;;;;;;5114705;28;20024;-74
2022/04/18 03:10:00;;;;;;;0.63;0.63;;;11.40;99.90;;;;;;5114778;28;20046;-74
2022/04/18 03:12:26;;;;;;;0.20;0.20;;;11.40;99.90;;;;;;5114871;28;20024;-74
2022/04/18 03:14:52;;;;;;;0.40;0.40;;;11.30;99.90;;;;;;5114761;28;20096;-79
2022/04/18 03:17:19;;;;;;;7.68;1.65;;;11.40;99.90;;;;;;5114783;28;20023;-75
2022/04/18 03:19:45;;;;;;;0.75;0.25;;;11.40;99.90;;;;;;5098971;28;20062;-74
2022/04/18 03:22:10;;;;;;;17.80;2.65;;;11.40;99.90;;;;;;5094360;28;20028;-74
2022/04/18 03:24:36;;;;;;;0.05;0.05;;;11.50;99.90;;;;;;5094227;28;20028;-74
2022/04/18 03:27:03;;;;;;;0.20;0.20;;;11.40;99.90;;;;;;5094273;28;20032;-80
2022/04/18 03:29:29;;;;;;;9.55;0.82;;;11.40;99.90;;;;;;5093281;28;20406;-79
2022/04/18 03:31:55;;;;;;;0.88;0.60;;;11.40;99.90;;;;;;5094122;28;20016;-74
2022/04/18 03:34:22;;;;;;;1.50;0.88;;;11.50;99.90;;;;;;5093501;28;20463;-79
2022/04/18 03:39:50;;;;;;;2.08;0.63;;;11.50;99.90;;;;;;5094099;28;20090;-74
2022/04/18 03:42:29;;;;;;;0.40;0.40;;;11.50;99.90;;;;;;5093816;28;20101;-75
2022/04/18 03:44:56;;;;;;;0.28;0.28;;;11.40;99.90;;;;;;5088633;28;144142;-79
2022/04/18 03:47:22;;;;;;;12.40;0.82;;;11.50;99.90;;;;;;5093700;28;20115;-74
2022/04/18 03:49:48;;;;;;;0.10;0.10;;;11.50;99.90;;;;;;5076180;28;20119;-80
2022/04/18 03:52:13;;;;;;;0.47;0.35;;;11.50;99.90;;;;;;5094160;28;20016;-74
2022/04/18 03:54:43;;;;;;;0.00;0.00;;;11.50;99.90;;;;;;5111783;28;20027;-79
2022/04/18 03:57:09;;;;;;;0.47;0.47;;;11.60;99.90;;;;;;5115081;28;20443;-74
2022/04/18 03:59:35;;;;;;;1.02;0.30;;;11.60;99.90;;;;;;5114631;28;20023;-74
2022/04/18 04:02:01;;;;;;;4.05;1.15;;;11.60;99.90;;;;;;5114975;28;20080;-74
2022/04/18 04:04:26;;;;;;;3.08;0.65;;;11.60;99.90;;;;;;5113965;28;20080;-74
2022/04/18 04:06:52;;;;;;;4.57;0.38;;;11.60;99.90;;;;;;5114867;28;20059;-74
2022/04/18 04:09:18;;;;;;;26.17;0.65;;;11.60;99.90;;;;;;5114943;28;20032;-74
2022/04/18 04:11:43;;;;;;;0.70;0.68;;;11.60;99.90;;;;;;5114477;28;20024;-79
2022/04/18 04:14:09;;;;;;;1.45;1.35;;;11.60;99.90;;;;;;5113160;28;20496;-74
2022/04/18 04:16:34;;;;;;;3.25;0.63;;;11.60;99.90;;;;;;5096391;28;20020;-74
2022/04/18 04:19:00;;;;;;;2.28;1.00;;;11.60;99.90;;;;;;5115319;28;20023;-78
2022/04/18 04:21:26;;;;;;;1.05;0.38;;;11.70;99.90;;;;;;5116541;28;20027;-79
2022/04/18 04:23:51;;;;;;;0.03;0.03;;;11.70;99.90;;;;;;5114420;28;20065;-74
2022/04/18 04:26:17;;;;;;;0.82;0.70;;;11.80;99.90;;;;;;5114319;28;20409;-79
2022/04/18 04:28:43;;;;;;;2.40;0.80;;;11.80;99.90;;;;;;5114148;28;20034;-80
2022/04/18 04:31:08;;;;;;;2.08;0.80;;;11.80;99.90;;;;;;5114434;28;20027;-74
2022/04/18 04:33:34;;;;;;;1.45;0.47;;;11.80;99.90;;;;;;5114018;28;20061;-80
2022/04/18 04:36:00;;;;;;;1.00;0.57;;;11.80;99.90;;;;;;5114478;28;20057;-79
2022/04/18 04:38:26;;;;;;;1.75;0.75;;;11.80;99.90;;;;;;5099198;28;20471;-74
2022/04/18 04:40:53;;;;;;;8.00;1.80;;;11.80;99.90;;;;;;5092526;28;20024;-74
2022/04/18 04:43:28;;;;;;;1.20;0.88;;;11.80;99.90;;;;;;5073344;28;20035;-74
2022/04/18 04:45:54;;;;;;;4.75;0.90;;;11.80;99.90;;;;;;5073403;28;20106;-76
2022/04/18 04:48:20;;;;;;;0.57;0.57;;;11.80;99.90;;;;;;5073355;28;20035;-80
2022/04/18 04:50:46;;;;;;;2.05;1.23;;;11.80;99.90;;;;;;5073350;28;20037;-74
2022/04/18 04:53:12;;;;;;;0.55;0.55;;;11.80;99.90;;;;;;5082686;28;20030;-80
2022/04/18 04:55:37;;;;;;;1.80;1.42;;;11.80;99.90;;;;;;5113429;28;20020;-74
2022/04/18 04:58:03;;;;;;;22.05;1.90;;;11.80;99.90;;;;;;5113988;28;20368;-79
2022/04/18 05:00:29;;;;;;;1.85;1.13;;;11.80;99.90;;;;;;5114133;28;20167;-74
2022/04/18 05:02:56;;;;;;;0.17;0.17;;;11.70;99.90;;;;;;5113975;28;20117;-79
2022/04/18 05:05:22;;;;;;;0.55;0.55;;;11.80;99.90;;;;;;5114111;28;20027;-74
2022/04/18 05:07:48;;;;;;;0.90;0.70;;;11.80;99.90;;;;;;5112738;28;20482;-74
2022/04/18 05:10:15;;;;;;;0.90;0.60;;;11.80;99.90;;;;;;5113583;28;20076;-79
2022/04/18 05:12:41;;;;;;;0.20;0.20;;;11.90;99.90;;;;;;5112988;28;20039;-79
2022/04/18 05:15:07;;;;;;;0.43;0.43;;;11.80;99.90;;;;;;5113533;28;20034;-74
2022/04/18 05:17:33;;;;;;;3.22;0.68;;;11.80;99.90;;;;;;5095217;28;20023;-74
2022/04/18 05:19:59;;;;;;;0.95;0.73;;;11.70;99.90;;;;;;5113177;28;20054;-74
2022/04/18 05:22:25;;;;;;;0.73;0.73;;;11.70;99.90;;;;;;5113568;28;20028;-74
2022/04/18 05:24:51;;;;;;;6.88;1.27;;;11.70;99.90;;;;;;5113085;28;20028;-74
2022/04/18 05:27:17;;;;;;;2.05;1.33;;;11.70;99.90;;;;;;5113447;28;20063;-80
2022/04/18 05:29:44;;;;;;;0.55;0.50;;;11.70;99.90;;;;;;5112755;28;20406;-74
2022/04/18 05:32:10;;;;;;;0.45;0.30;;;11.70;99.90;;;;;;5113193;28;20042;-74
2022/04/18 05:34:36;;;;;;;2.17;0.47;;;11.70;99.90;;;;;;5113088;28;20501;-80
2022/04/18 05:37:02;;;;;;;2.85;1.17;;;11.80;99.90;;;;;;5096401;28;20024;-79
2022/04/18 05:39:27;;;;;;;3.25;0.90;;;11.80;99.90;;;;;;5093219;28;20039;-79
2022/04/18 05:41:53;;;;;;;4.38;1.48;;;11.80;99.90;;;;;;5083012;28;20013;-74
2022/04/18 05:44:19;;;;;;;0.00;0.00;;;11.80;99.90;;;;;;5072657;28;20029;-74
2022/04/18 05:46:44;;;;;;;3.50;0.93;;;11.80;99.90;;;;;;5072425;28;20076;-74
2022/04/18 05:49:10;;;;;;;0.60;0.57;;;11.80;99.90;;;;;;5071735;28;20099;-74
2022/04/18 05:51:37;;;;;;;0.85;0.85;;;11.80;99.90;;;;;;5072691;28;20021;-74
2022/04/18 05:54:03;;;;;;;3.08;0.85;;;11.80;99.90;;;;;;5096145;28;20069;-79
2022/04/18 05:56:29;;;;;;;5.85;1.17;;;11.80;99.90;;;;;;5113134;28;20065;-79
2022/04/18 05:58:56;;;;;;;0.98;0.85;;;11.80;99.90;;;;;;5113140;28;20464;-78
2022/04/18 06:01:22;;;;;;;1.45;1.35;;;11.80;99.90;;;;;;5113351;28;20437;-74
2022/04/18 06:03:47;;;;;;;2.53;0.93;;;11.80;99.90;;;;;;5112667;28;20059;-74
2022/04/18 06:06:14;;;;;;;3.33;1.63;;;11.80;99.90;;;;;;5113364;28;20440;-79
2022/04/18 06:08:40;;;;;;;2.28;0.47;;;11.80;99.90;;;;;;5113113;28;20028;-74
2022/04/18 06:11:05;;;;;;;1.10;1.02;;;11.80;99.90;;;;;;5112788;28;20088;-74
2022/04/18 06:13:32;;;;;;;4.82;1.40;;;11.80;99.90;;;;;;5112797;28;20059;-74
2022/04/18 06:15:57;;;;;;;0.22;0.20;;;11.80;99.90;;;;;;5113007;28;20031;-79
2022/04/18 06:18:23;;;;;;;1.20;0.80;;;11.80;99.90;;;;;;5113022;28;20019;-80
2022/04/18 06:20:49;;;;;;;3.20;1.15;;;11.70;99.90;;;;;;5112823;28;20094;-80
2022/04/18 06:23:16;;;;;;;1.23;1.05;;;11.70;99.90;;;;;;5112185;28;20024;-74
2022/04/18 06:25:42;;;;;;;14.98;1.55;;;11.70;99.90;;;;;;5112769;28;20440;-73
2022/04/18 06:28:08;;;;;;;3.95;1.02;;;11.80;99.90;;;;;;5112728;28;20115;-74
2022/04/18 06:30:33;;;;;;;5.03;0.90;;;11.80;99.90;;;;;;5112873;28;20071;-79
2022/04/18 06:32:59;;;;;;;0.63;0.63;;;11.90;99.90;;;;;;5113006;28;20028;-74
2022/04/18 06:35:25;;;;;;;8.88;1.00;;;12.20;99.90;;;;;;5112666;28;20436;-80
2022/04/18 06:37:51;;;;;;;15.80;1.77;;;12.40;99.90;;;;;;5104949;28;20368;-74
2022/04/18 06:40:16;;;;;;;1.92;1.10;;;12.40;99.90;;;;;;5096220;28;20024;-74
2022/04/18 06:42:42;;;;;;;4.13;1.00;;;12.50;99.90;;;;;;5079062;28;20020;-80
2022/04/18 06:45:08;;;;;;;3.60;0.60;;;12.60;99.90;;;;;;5075679;28;20025;-80
2022/04/18 06:47:34;;;;;;;6.82;1.88;;;12.70;99.90;;;;;;5075715;28;20028;-74
2022/04/18 06:50:00;;;;;;;0.75;0.65;;;12.90;99.90;;;;;;5075588;28;20074;-80
2022/04/18 06:52:26;;;;;;;1.17;0.95;;;13.10;99.90;;;;;;5075660;28;20055;-74
2022/04/18 06:54:51;;;;;;;3.13;2.20;;;13.30;99.90;;;;;;5112385;28;20023;-79
2022/04/18 06:57:17;;;;;;;3.15;1.90;;;13.40;99.90;;;;;;5115638;28;20494;-80
2022/04/18 06:59:43;;;;;;;5.28;1.58;;;13.60;99.90;;;;;;5115671;28;20077;-80
2022/04/18 07:02:08;;;;;;;2.20;2.05;;;13.70;99.90;;;;;;5116487;28;20501;-74
2022/04/18 07:04:35;;;;;;;5.60;1.30;;;13.90;99.90;;;;;;5115702;28;20036;-80
2022/04/18 07:07:00;;;;;;;2.28;0.55;;;14.30;99.90;;;;;;5116141;28;20032;-74
2022/04/18 07:09:26;;;;;;;2.65;1.48;;;14.40;99.90;;;;;;5116117;28;20041;-74
2022/04/18 07:11:52;;;;;;;3.60;1.35;;;14.30;99.90;;;;;;5115683;28;20103;-80
2022/04/18 07:14:18;;;;;;;5.95;1.38;;;13.90;99.90;;;;;;5114728;28;20090;-80
2022/04/18 07:16:44;;;;;;;2.28;0.98;;;13.60;99.90;;;;;;5115884;28;20022;-74
2022/04/18 07:19:10;;;;;;;0.85;0.52;;;13.30;99.90;;;;;;5115207;28;20062;-80
2022/04/18 07:21:36;;;;;;;1.08;0.68;;;13.20;99.90;;;;;;5115888;28;20111;-79
2022/04/18 07:24:03;;;;;;;2.63;1.25;;;13.00;99.90;;;;;;5115847;28;20124;-79
2022/04/18 07:26:29;;;;;;;3.13;0.80;;;12.80;99.90;;;;;;5115307;28;20043;-74
2022/04/18 07:28:55;;;;;;;1.05;0.77;;;12.60;99.90;;;;;;5097379;28;20402;-74
2022/04/18 07:31:20;;;;;;;2.63;0.52;;;12.60;99.90;;;;;;5115953;28;20024;-80
2022/04/18 07:33:46;;;;;;;5.50;1.02;;;12.40;99.90;;;;;;5114343;28;20038;-80
2022/04/18 07:36:12;;;;;;;0.50;0.35;;;12.40;99.90;;;;;;5115508;28;20553;-80
2022/04/18 07:38:49;;;;;;;1.50;0.63;;;12.30;99.90;;;;;;5080679;28;20111;-74
2022/04/18 07:41:17;;;;;;;0.65;0.65;;;12.30;99.90;;;;;;5090040;28;20383;-74
2022/04/18 07:43:43;;;;;;;2.80;1.35;;;12.30;99.90;;;;;;5074637;28;20027;-74
2022/04/18 07:46:09;;;;;;;4.82;1.27;;;12.30;99.90;;;;;;5064097;28;20052;-74
2022/04/18 07:48:34;;;;;;;1.30;0.70;;;12.40;99.90;;;;;;5052479;28;20514;-79
2022/04/18 07:53:45;;;;;;;1.75;0.90;;;12.80;99.90;;;;;;5072738;28;20039;-80
2022/04/18 07:56:11;;;;;;;2.63;1.55;;;13.30;99.90;;;;;;5076124;28;20470;-74
2022/04/18 07:58:37;;;;;;;2.33;1.63;;;13.80;99.90;;;;;;5094634;28;20102;-74
2022/04/18 08:01:03;;;;;;;2.83;0.85;;;13.90;99.90;;;;;;5076453;28;20024;-80
2022/04/18 08:03:28;;;;;;;1.98;1.10;;;14.40;99.90;;;;;;5094100;28;20028;-75
2022/04/18 08:05:57;;;;;;;1.80;0.57;;;15.50;99.90;;;;;;5094324;28;20104;-74
2022/04/18 08:08:23;;;;;;;6.38;1.88;;;17.60;99.90;;;;;;5093772;28;20471;-75
2022/04/18 08:10:49;;;;;;;2.58;1.25;;;18.80;99.90;;;;;;5094116;28;20039;-80
2022/04/18 08:13:15;;;;;;;4.20;1.48;;;19.30;99.90;;;;;;5094473;28;20028;-80
2022/04/18 08:15:40;;;;;;;3.22;1.98;;;20.30;99.90;;;;;;5094151;28;20016;-75
2022/04/18 08:18:06;;;;;;;4.13;2.00;;;21.30;99.90;;;;;;5094325;28;20520;-74
2022/04/18 08:20:32;;;;;;;2.95;1.70;;;21.40;99.40;;;;;;5093930;28;20497;-75
2022/04/18 08:22:58;;;;;;;2.42;1.65;;;20.50;99.40;;;;;;5094202;28;20103;-76
2022/04/18 08:25:23;;;;;;;3.40;2.17;;;20.40;99.90;;;;;;5094156;28;20032;-75
2022/04/18 08:27:49;;;;;;;3.90;1.80;;;20.00;99.90;;;;;;5094215;28;20116;-80
2022/04/18 08:30:15;;;;;;;3.35;1.80;;;21.10;99.90;;;;;;5093932;28;20463;-80
2022/04/18 08:32:41;;;;;;;7.07;1.75;;;21.90;98.20;;;;;;5094080;28;20394;-77
2022/04/18 08:35:08;;;;;;;2.35;1.88;;;21.60;98.60;;;;;;5093777;28;20094;-72
2022/04/18 08:37:34;;;;;;;2.45;1.30;;;21.80;98.70;;;;;;5093724;28;20061;-72
2022/04/18 08:40:10;;;;;;;4.07;1.70;;;21.80;98.30;;;;;;5093962;28;20019;-77
2022/04/18 08:42:41;;;;;;;4.82;1.70;;;21.60;99.40;;;;;;5061071;28;20021;-77
2022/04/18 08:45:10;;;;;;;4.88;1.65;;;22.10;98.30;;;;;;5055128;28;20031;-74
2022/04/18 08:53:12;;;;;;;11.60;1.88;;;17.80;99.90;;;;;;5077669;28;20406;-80
2022/04/18 08:55:38;;;;;;;2.10;1.42;;;17.30;99.90;;;;;;5092561;28;20505;-79
2022/04/18 08:58:04;;;;;;;4.75;1.90;;;17.80;99.90;;;;;;5093858;28;20056;-79
2022/04/18 09:00:30;;;;;;;0.88;0.73;;;17.20;99.90;;;;;;5092835;28;20036;-74
2022/04/18 09:02:56;;;;;;;5.32;1.13;;;17.00;99.90;;;;;;5093499;28;20025;-74
2022/04/18 09:05:22;;;;;;;2.20;1.23;;;17.00;99.90;;;;;;5093130;28;20104;-79
2022/04/18 09:07:59;;;;;;;3.65;1.65;;;16.60;99.90;;;;;;5093124;28;20032;-80
2022/04/18 09:10:25;;;;;;;5.85;2.55;;;16.40;99.90;;;;;;5093255;28;20507;-74
2022/04/18 09:12:51;;;;;;;3.42;2.03;;;16.40;99.90;;;;;;5093206;28;20150;-79
2022/04/18 09:15:35;;;;;;;3.35;0.95;;;16.20;99.90;;;;;;5093301;28;20538;-79
2022/04/18 09:18:15;;;;;;;2.70;1.48;;;16.20;99.90;;;;;;5092469;28;20020;-79
2022/04/18 09:20:42;;;;;;;2.63;1.02;;;16.40;99.90;;;;;;5091505;28;20513;-80
2022/04/18 09:23:18;;;;;;;3.15;1.00;;;18.30;99.90;;;;;;5093171;28;20030;-79
2022/04/18 09:25:44;;;;;;;7.35;1.60;;;19.60;99.90;;;;;;5093163;28;20491;-74
2022/04/18 09:28:10;;;;;;;2.78;1.40;;;20.10;99.90;;;;;;5093183;28;20055;-75
2022/04/18 09:30:37;;;;;;;3.67;1.08;;;20.50;99.90;;;;;;5093081;28;20387;-79
2022/04/18 09:33:03;;;;;;;2.90;1.45;;;20.20;99.90;;;;;;5093007;28;20020;-80
2022/04/18 09:35:30;;;;;;;3.50;1.92;;;19.10;99.90;;;;;;5092740;28;20028;-74
2022/04/18 09:38:18;;;;;;;9.60;1.42;;;18.20;99.90;;;;;;5092737;28;20012;-74
2022/04/18 09:40:43;;;;;;;5.43;1.02;;;17.90;99.90;;;;;;5092792;28;20440;-78
2022/04/18 09:43:09;;;;;;;6.57;1.80;;;17.60;99.90;;;;;;5092898;28;20028;-74
2022/04/18 09:45:37;;;;;;;2.90;0.90;;;18.20;99.90;;;;;;5092586;28;20057;-79
2022/04/18 09:48:03;;;;;;;3.03;1.40;;;18.20;99.90;;;;;;5093287;28;20024;-79
2022/04/18 09:53:20;;;;;;;4.15;1.58;;;18.40;99.90;;;;;;5096889;28;20062;-80
2022/04/18 09:55:47;;;;;;;1.37;1.20;;;18.80;99.90;;;;;;5093792;28;20016;-74
2022/04/18 09:58:13;;;;;;;10.75;2.28;;;20.40;99.90;;;;;;5112958;28;20028;-79
2022/04/18 10:00:40;;;;;;;5.43;2.10;;;22.40;99.90;;;;;;5113066;28;20106;-80
2022/04/18 10:03:06;;;;;;;2.53;1.30;;;22.90;98.90;;;;;;5112972;28;20483;-79
2022/04/18 10:05:33;;;;;;;1.73;0.77;;;21.60;98.60;;;;;;5112385;28;20043;-79
2022/04/18 10:08:03;;;;;;;2.17;1.17;;;20.10;99.90;;;;;;5113270;28;20100;-74
2022/04/18 10:10:31;;;;;;;4.32;1.40;;;18.90;99.90;;;;;;5112745;28;20455;-79
2022/04/18 10:12:57;;;;;;;1.85;0.77;;;18.40;99.90;;;;;;5114968;28;20020;-79
2022/04/18 10:15:24;;;;;;;2.67;0.80;;;18.20;99.90;;;;;;5116274;28;20027;-79
2022/04/18 10:17:50;;;;;;;2.00;0.75;;;18.40;99.90;;;;;;5116671;28;20027;-75
2022/04/18 10:20:53;;;;;;;3.22;1.45;;;18.30;99.90;;;;;;5095896;28;20032;-79
2022/04/18 10:23:46;;;;;;;2.30;0.82;;;18.10;99.90;;;;;;5096573;28;20070;-79
2022/04/18 10:26:34;;;;;;;2.55;1.45;;;17.90;99.90;;;;;;5096529;28;20028;-79
2022/04/18 10:29:09;;;;;;;1.23;0.80;;;17.80;99.90;;;;;;5095955;28;20020;-74
2022/04/18 10:31:39;;;;;;;3.08;1.63;;;18.00;99.90;;;;;;5096389;28;20418;-74
2022/04/18 10:34:06;;;;;;;2.08;0.80;;;18.00;99.90;;;;;;5095938;28;20015;-78
2022/04/18 10:36:33;;;;;;;2.35;0.77;;;18.00;99.90;;;;;;5096249;28;20107;-79
2022/04/18 10:39:04;;;;;;;2.72;1.08;;;18.70;99.90;;;;;;5096150;28;20016;-80
2022/04/18 10:41:38;;;;;;;0.98;0.90;;;19.40;99.90;;;;;;5096182;28;20030;-74
2022/04/18 10:44:18;;;;;;;1.80;1.00;;;20.60;99.90;;;;;;5095769;28;20024;-78
2022/04/18 10:46:55;;;;;;;2.75;0.85;;;21.00;99.90;;;;;;5095736;28;20040;-74
2022/04/18 10:49:23;;;;;;;1.33;0.65;;;20.00;99.90;;;;;;5095598;28;20070;-79
2022/04/18 10:51:51;;;;;;;1.30;0.93;;;19.70;99.90;;;;;;5096011;28;20077;-79
2022/04/18 10:54:20;;;;;;;1.30;0.80;;;19.10;99.90;;;;;;5095471;28;20032;-79
2022/04/18 10:56:56;;;;;;;2.25;0.52;;;20.10;99.90;;;;;;5095403;28;20066;-79
2022/04/18 10:59:27;;;;;;;3.38;0.90;;;19.50;99.90;;;;;;5095688;28;20020;-74
2022/04/18 11:02:03;;;;;;;1.30;0.90;;;19.50;99.90;;;;;;5095726;28;20024;-79
2022/04/18 11:04:31;;;;;;;2.33;0.80;;;20.00;99.90;;;;;;5114983;28;20030;-79
2022/04/18 11:07:05;;;;;;;0.85;0.50;;;20.00;99.90;;;;;;5116184;28;20031;-74
2022/04/18 11:09:35;;;;;;;1.35;0.77;;;20.20;99.90;;;;;;5115847;28;20030;-79
2022/04/18 11:12:12;;;;;;;1.90;0.85;;;21.00;99.90;;;;;;5115823;28;20039;-78
2022/04/18 11:14:38;;;;;;;3.00;0.85;;;21.70;99.90;;;;;;5115538;28;20030;-74
2022/04/18 11:17:06;;;;;;;1.35;0.82;;;21.50;99.10;;;;;;5115689;28;20414;-79
2022/04/18 11:19:36;;;;;;;1.20;0.70;;;21.50;99.90;;;;;;5115226;28;20016;-79
2022/04/18 11:22:04;;;;;;;2.53;1.60;;;21.40;99.20;;;;;;5115833;28;20016;-75
2022/04/18 11:24:46;;;;;;;0.93;0.60;;;21.50;99.70;;;;;;5115376;28;20032;-79
2022/04/18 11:27:28;;;;;;;1.20;0.82;;;21.50;99.40;;;;;;5124085;28;20019;-77
2022/04/18 11:29:56;;;;;;;4.93;1.35;;;21.60;99.40;;;;;;5117846;28;20428;-79
2022/04/18 11:32:33;;;;;;;0.82;0.63;;;21.30;99.70;;;;;;5115826;28;20099;-75
2022/04/18 11:35:00;;;;;;;0.85;0.75;;;21.70;99.90;;;;;;5115242;28;20024;-79
2022/04/18 11:37:40;;;;;;;1.92;1.17;;;20.80;99.90;;;;;;5115008;28;20412;-80
2022/04/18 11:40:11;;;;;;;3.38;1.02;;;20.40;99.90;;;;;;5115427;28;20386;-75
2022/04/18 11:42:39;;;;;;;0.75;0.50;;;20.30;99.90;;;;;;5099579;28;20040;-79
2022/04/18 11:45:08;;;;;;;0.52;0.40;;;20.50;99.90;;;;;;5074735;28;20028;-75
2022/04/18 11:47:38;;;;;;;2.28;0.80;;;20.90;99.90;;;;;;5056384;28;20033;-79
2022/04/18 11:50:05;;;;;;;7.85;1.15;;;21.00;99.90;;;;;;5074178;28;20556;-74
2022/04/18 11:52:38;;;;;;;0.68;0.65;;;21.30;99.90;;;;;;5074380;28;20025;-79
2022/04/18 11:55:09;;;;;;;2.33;0.88;;;21.60;99.90;;;;;;5074285;28;20025;-79
2022/04/18 11:57:38;;;;;;;3.10;0.60;;;21.70;99.90;;;;;;5073590;28;20090;-74
2022/04/18 12:00:11;;;;;;;2.10;0.52;;;21.40;99.90;;;;;;5074481;28;20027;-74
2022/04/18 12:08:10;;;;;;;3.35;0.80;;;21.10;99.90;;;;;;5074481;28;20542;-74
2022/04/18 12:10:38;;;;;;;0.45;0.38;;;21.20;99.90;;;;;;5073843;28;20020;-75
2022/04/18 12:13:09;;;;;;;3.50;0.85;;;21.20;99.80;;;;;;5073238;28;20031;-79
2022/04/18 12:15:35;;;;;;;3.50;0.70;;;20.90;99.90;;;;;;5074087;28;20024;-74
2022/04/18 12:18:27;;;;;;;0.95;0.47;;;20.50;99.90;;;;;;5073911;28;20028;-74
2022/04/18 12:20:53;;;;;;;0.82;0.82;;;20.30;99.90;;;;;;5070905;28;20044;-74
2022/04/18 12:23:20;;;;;;;1.30;0.68;;;20.70;99.90;;;;;;5074140;28;20074;-74
2022/04/18 12:25:48;;;;;;;2.70;0.40;;;21.10;99.90;;;;;;5073840;28;20399;-74
2022/04/18 12:28:15;;;;;;;0.95;0.68;;;20.80;99.90;;;;;;5073962;28;20027;-79
2022/04/18 12:30:41;;;;;;;0.85;0.85;;;20.50;99.90;;;;;;5073119;28;20043;-79
2022/04/18 12:33:26;;;;;;;3.03;1.50;;;20.10;99.90;;;;;;5073712;28;20086;-74
2022/04/18 12:36:00;;;;;;;0.98;0.63;;;19.90;99.90;;;;;;5072712;28;20442;-79
2022/04/18 12:38:36;;;;;;;1.25;0.73;;;19.90;99.90;;;;;;5088229;28;20055;-74
2022/04/18 12:41:03;;;;;;;0.60;0.30;;;20.70;99.90;;;;;;5093857;28;20016;-79
2022/04/18 12:43:34;;;;;;;1.55;0.60;;;20.80;99.90;;;;;;5093517;28;20028;-79
2022/04/18 12:46:00;;;;;;;1.65;1.52;;;21.10;99.90;;;;;;5093567;28;20036;-74
2022/04/18 12:48:28;;;;;;;0.75;0.75;;;20.90;99.90;;;;;;5092903;28;20107;-74
2022/04/18 12:50:56;;;;;;;0.60;0.28;;;20.80;99.90;;;;;;5093929;28;20143;-74
2022/04/18 12:53:54;;;;;;;0.98;0.35;;;20.80;99.90;;;;;;5093094;28;20043;-74
2022/04/18 12:56:27;;;;;;;2.00;0.73;;;20.30;99.90;;;;;;5092816;28;20034;-74
2022/04/18 12:59:03;;;;;;;3.42;1.30;;;20.60;99.90;;;;;;5113777;28;20038;-79
2022/04/18 13:01:35;;;;;;;2.40;1.35;;;20.50;99.90;;;;;;5113813;28;20027;-74
2022/04/18 13:04:17;;;;;;;7.43;1.45;;;20.50;99.90;;;;;;5113562;28;20046;-79
2022/04/18 13:06:43;;;;;;;0.50;0.32;;;20.50;99.90;;;;;;5113785;28;20423;-74
2022/04/18 13:09:10;;;;;;;0.50;0.30;;;20.80;99.90;;;;;;5114063;28;20088;-79
2022/04/18 13:11:36;;;;;;;0.57;0.50;;;20.90;99.90;;;;;;5113255;28;20083;-74
2022/04/18 13:14:03;;;;;;;4.07;0.70;;;20.90;99.90;;;;;;5112895;28;20038;-74